• Join FlightAware (Why Join?)
  • Login
  • US Flag 
12:42AM EDT


 

Airport Tracker/Info


-or-


 

Live Flight TrackerFlight Track Log ✈ ASQ6185 ✈ 13-May-2013 ✈ KDEN - KFSD

Flight Track Log - Related Links

Times and Time Zones

All times are in EDT time to prevent confusion due to time zone crossing. See the ASQ6185 flight status page for this flight to view local times or setup timezone preferences in your user account.

Time Position Orientation Groundspeed Altitude Reporting Facility
EDT Latitude Longitude Course Direction KTS MPH feet Rate Location/Type
11:15AM 39.8500 -104.7833 North 212 244 7,600  Level Denver TRACON
11:16AM 39.9000 -104.8667 308° West 243 280 9,700 2,100 Climbing Denver TRACON
11:17AM 39.9031 -104.8875 281° West 242 278 10,400 1,440 Climbing Denver Center
11:18AM 39.9644 -104.9436 325° Northwest 278 320 11,700 1,380 Climbing Denver Center
11:19AM 40.0486 -104.9447 359° North 305 351 13,300 1,560 Climbing Denver Center
11:20AM 40.1394 -104.8867 26° Northeast 349 402 15,000 1,500 Climbing Denver Center
11:21AM 40.2904 -104.5000 North  Level FlightAware Approximate
11:21AM 40.2175 -104.8003 40° Northeast 366 421 16,500  Level Denver Center
11:22AM 40.2942 -104.6842 49° Northeast 391 450 17,800 1,380 Climbing Denver Center
11:23AM 40.3636 -104.5725 51° Northeast 395 455 19,400 1,560 Climbing Denver Center
11:24AM 40.4356 -104.4608 50° Northeast 400 460 21,100 1,800 Climbing Denver Center
11:25AM 40.5103 -104.3453 50° Northeast 386 444 23,200 1,980 Climbing Denver Center
11:26AM 40.5786 -104.2350 51° Northeast 392 451 25,200 1,980 Climbing Denver Center
11:27AM 40.6583 -104.1350 44° Northeast 372 428 27,400 1,860 Climbing Denver Center
11:28AM 40.7283 -104.0450 44° Northeast 351 404 29,100 1,320 Climbing Denver Center
11:29AM 40.7989 -103.9503 45° Northeast 374 430 30,200 780 Climbing Denver Center
11:30AM 40.8856 -103.8417 43° Northeast 384 442 30,800 360 Climbing Denver Center
11:31AM 40.9533 -103.7222 53° Northeast 418 481 31,000 60 Climbing Denver Center
11:32AM 41.0211 -103.5631 61° Northeast 440 506 31,000  Level Denver Center
11:33AM 41.0808 -103.4267 60° Northeast 446 513 31,000  Level Denver Center
11:34AM 41.1497 -103.2675 60° Northeast 447 514 31,000  Level Denver Center
11:35AM 41.2083 -103.1308 60° Northeast 446 513 31,000  Level Denver Center
11:36AM 41.2764 -102.9719 60° Northeast 445 512 31,000  Level Denver Center
11:37AM 41.3347 -102.8328 61° Northeast 450 518 31,000  Level Denver Center
11:38AM 41.4028 -102.6719 61° Northeast 449 517 31,000  Level Denver Center
11:39AM 41.4647 -102.5264 60° Northeast 448 516 31,000  Level Denver Center
11:40AM 41.5239 -102.3861 61° Northeast 452 520 31,000  Level Denver Center
11:42AM 41.5922 -102.2217 61° Northeast 452 520 31,000  Level Denver Center
11:43AM 41.6506 -102.0817 61° Northeast 451 519 31,000  Level Denver Center
11:44AM 41.7172 -101.9178 61° Northeast 448 516 31,000  Level Denver Center
11:45AM 41.7761 -101.7767 61° Northeast 451 519 31,000  Level Denver Center
11:46AM 41.8417 -101.6133 62° Northeast 447 514 31,000  Level Denver Center
11:47AM 41.9011 -101.4719 61° Northeast 451 519 31,000  Level Denver Center
11:48AM 41.9669 -101.3067 62° Northeast 450 518 31,000  Level Denver Center
11:49AM 42.0225 -101.1647 62° Northeast 448 516 31,000  Level Denver Center
11:50AM 42.0889 -100.9997 61° Northeast 448 516 31,000  Level Denver Center
11:51AM 42.1461 -100.8575 61° Northeast 449 517 31,000  Level Denver Center
11:52AM 42.2019 -100.7153 62° Northeast 448 516 31,000  Level Denver Center
11:53AM 42.2664 -100.5500 62° Northeast 447 514 31,000  Level Denver Center
11:54AM 42.3228 -100.4078 62° Northeast 447 514 31,000  Level Denver Center
11:54AM 42.3408 -100.3583 64° Northeast 444 511 31,000  Level Minneapolis Center
11:55AM 42.3878 -100.2400 62° Northeast 449 517 31,000  Level Denver Center
11:56AM 42.4431 -100.0956 63° Northeast 451 519 31,000  Level Denver Center
11:57AM 42.5039 -99.9378 62° Northeast 446 513 31,000  Level Denver Center
11:58AM 42.5625 -99.7847 62° Northeast 451 519 31,000  Level Denver Center
11:59AM 42.6192 -99.6347 63° Northeast 449 517 31,000  Level Denver Center
12:00PM 42.6853 -99.4594 63° Northeast 449 517 31,000  Level Denver Center
12:01PM 42.7417 -99.3092 63° Northeast 447 514 31,000  Level Denver Center
12:02PM 42.8022 -99.1478 63° Northeast 454 522 31,000  Level Denver Center
12:03PM 42.8586 -98.9944 63° Northeast 452 520 31,000 -540 Level Denver Center
12:04PM 42.9225 -98.8275 62° Northeast 446 513 29,800 -900 Descending Minneapolis Center
12:05PM 42.9653 -98.7081 64° Northeast 440 506 29,000 -1,260 Descending Minneapolis Center
12:07PM 43.0439 -98.4958 63° Northeast 448 516 27,300 -1,440 Descending Minneapolis Center
12:08PM 43.1008 -98.3389 64° Northeast 458 527 26,100 -1,200 Descending Minneapolis Center
12:09PM 43.1561 -98.1817 64° Northeast 461 531 24,900 -1,320 Descending Minneapolis Center
12:10PM 43.2108 -98.0300 64° Northeast 450 518 23,500 -1,440 Descending Minneapolis Center
12:11PM 43.2633 -97.8836 64° Northeast 431 496 22,000 -1,560 Descending Minneapolis Center
12:12PM 43.3167 -97.7392 63° Northeast 428 493 20,400 -1,620 Descending Minneapolis Center
12:13PM 43.3781 -97.5639 64° Northeast 427 491 18,800 -1,620 Descending Minneapolis Center
12:14PM 43.4256 -97.4261 65° Northeast 404 465 17,100 -1,800 Descending Minneapolis Center
12:15PM 43.4694 -97.3039 64° Northeast 367 422 15,100 -1,980 Descending Minneapolis Center
12:16PM 43.5078 -97.1875 66° East 345 397 13,100 -2,040 Descending Minneapolis Center
12:17PM 43.5478 -97.0772 63° Northeast 333 383 11,000 -2,040 Descending Minneapolis Center
12:18PM 43.5928 -96.9806 57° Northeast 318 366 9,000 -1,920 Descending Minneapolis Center
12:19PM 43.6406 -96.9094 47° Northeast 280 322 7,100 -2,160 Descending Minneapolis Center
12:20PM 43.6664 -96.8281 66° East 238 274 4,600 -2,040 Descending Minneapolis Center
12:21PM 43.6356 -96.7792 131° Southeast 194 223 3,000 -1,320 Descending Minneapolis Center
12:22PM 43.5986 -96.7450 146° Southeast 171 197 1,900 -1,140 Descending Minneapolis Center
12:24PM 43.5820 -96.7419 160° South  Level Estimated
12:31PM 43.5820 -96.7419 160° South  Level Estimated